Time;durP1;ratioP1;P1;durP2;ratioP2;P2;SDS_P1;SDS_P2;PMS_P1;PMS_P2;Temp;Humidity;BMP_temperature;BMP_pressure;BME280_temperature;BME280_humidity;BME280_pressure;Samples;Min_cycle;Max_cycle;Signal;HPM_P1;HPM_P2
2022/09/07 00:01:27;;;;;;;1.58;0.45;;;18.60;99.90;;;;;;5051563;28;20028;-85
2022/09/07 00:03:54;;;;;;;1.20;0.50;;;18.70;99.90;;;;;;5053087;28;20031;-84
2022/09/07 00:06:20;;;;;;;1.38;0.60;;;18.60;99.90;;;;;;5072558;28;20031;-84
2022/09/07 00:08:46;;;;;;;1.25;0.40;;;18.60;99.90;;;;;;5072307;28;20477;-85
2022/09/07 00:11:16;;;;;;;1.65;0.55;;;18.60;99.90;;;;;;5054999;28;20042;-84
2022/09/07 00:13:43;;;;;;;1.38;0.52;;;18.70;99.90;;;;;;5068376;28;20736;-84
2022/09/07 00:16:15;;;;;;;1.13;0.50;;;18.70;99.90;;;;;;5052986;28;20025;-85
2022/09/07 00:18:42;;;;;;;1.13;0.50;;;18.70;99.90;;;;;;5052382;28;20029;-84
2022/09/07 00:21:08;;;;;;;2.45;0.75;;;18.70;99.90;;;;;;5070545;28;20020;-84
2022/09/07 00:23:36;;;;;;;1.13;0.40;;;18.70;99.90;;;;;;5053877;28;20119;-85
2022/09/07 00:26:05;;;;;;;3.28;0.50;;;18.60;99.90;;;;;;5053578;28;20373;-85
2022/09/07 00:28:30;;;;;;;1.00;0.50;;;18.60;99.90;;;;;;5072243;28;20112;-84
2022/09/07 00:30:56;;;;;;;1.25;0.40;;;18.60;99.90;;;;;;5057861;28;20103;-84
2022/09/07 00:33:22;;;;;;;1.75;0.60;;;18.60;99.90;;;;;;5072089;28;20029;-84
2022/09/07 00:35:47;;;;;;;0.90;0.30;;;18.60;99.90;;;;;;5053051;28;20043;-85
2022/09/07 00:38:13;;;;;;;1.75;0.40;;;18.70;99.90;;;;;;5071874;28;20433;-84
2022/09/07 00:40:39;;;;;;;1.77;0.70;;;18.70;99.90;;;;;;5068746;28;20044;-85
2022/09/07 00:43:05;;;;;;;2.15;0.40;;;18.70;99.90;;;;;;5067281;28;20402;-85
2022/09/07 00:45:30;;;;;;;0.98;0.50;;;18.70;99.90;;;;;;5069364;28;20435;-85
2022/09/07 00:47:59;;;;;;;0.80;0.40;;;18.80;99.90;;;;;;5050164;28;20506;-85
2022/09/07 00:50:43;;;;;;;1.58;0.30;;;18.70;99.90;;;;;;5048373;28;20059;-84
2022/09/07 00:53:22;;;;;;;1.77;0.50;;;18.80;99.90;;;;;;5046206;28;20019;-85
2022/09/07 00:55:50;;;;;;;1.00;0.30;;;18.80;99.90;;;;;;5066982;28;20031;-85
2022/09/07 00:58:18;;;;;;;1.35;0.40;;;18.70;99.90;;;;;;5045356;28;20107;-84
2022/09/07 01:00:45;;;;;;;0.80;0.38;;;18.80;99.90;;;;;;5069183;28;20033;-85
2022/09/07 01:03:12;;;;;;;2.15;0.50;;;18.80;99.90;;;;;;5048847;28;20017;-85
2022/09/07 01:05:45;;;;;;;0.47;0.30;;;18.80;99.90;;;;;;5051686;28;20045;-85
2022/09/07 01:08:12;;;;;;;1.02;0.35;;;18.80;99.90;;;;;;5069494;28;20046;-85
2022/09/07 01:10:39;;;;;;;2.38;0.50;;;18.90;99.90;;;;;;5057138;28;20028;-84
2022/09/07 01:13:05;;;;;;;0.50;0.20;;;18.90;99.90;;;;;;5052910;28;20116;-84
2022/09/07 01:15:50;;;;;;;0.90;0.30;;;18.90;99.90;;;;;;5070471;28;20421;-85
2022/09/07 01:18:22;;;;;;;1.05;0.43;;;18.90;99.90;;;;;;5044300;28;20024;-85
2022/09/07 01:21:05;;;;;;;0.98;0.30;;;19.00;99.90;;;;;;5053196;28;20039;-85
2022/09/07 01:24:13;;;;;;;2.42;0.43;;;19.00;99.90;;;;;;5075461;28;20021;-85
2022/09/07 01:26:47;;;;;;;1.88;0.57;;;18.90;99.90;;;;;;5064758;28;20070;-84
2022/09/07 01:29:42;;;;;;;1.27;0.50;;;19.00;99.90;;;;;;5066239;28;20047;-84
2022/09/07 01:32:25;;;;;;;1.90;0.60;;;18.90;99.90;;;;;;5034426;28;20055;-85
2022/09/07 01:34:52;;;;;;;1.13;0.38;;;18.90;99.90;;;;;;5070159;28;20496;-85
2022/09/07 01:37:30;;;;;;;1.40;0.40;;;18.90;99.90;;;;;;5048765;28;20028;-85
2022/09/07 01:40:14;;;;;;;0.45;0.20;;;18.90;99.90;;;;;;5046568;28;20074;-84
2022/09/07 01:42:54;;;;;;;0.57;0.30;;;19.00;99.90;;;;;;5052603;28;20035;-85
2022/09/07 01:45:24;;;;;;;1.33;0.60;;;18.90;99.90;;;;;;5050084;28;20035;-84
2022/09/07 01:47:55;;;;;;;0.85;0.25;;;18.90;99.90;;;;;;5070753;28;20032;-84
2022/09/07 01:50:38;;;;;;;1.03;0.40;;;18.80;99.90;;;;;;5071200;28;20027;-83
2022/09/07 01:53:22;;;;;;;1.92;0.30;;;18.60;99.90;;;;;;5048888;28;20413;-84
2022/09/07 01:56:00;;;;;;;2.10;0.40;;;18.60;99.90;;;;;;5068709;28;20062;-84
2022/09/07 01:58:45;;;;;;;1.20;0.50;;;18.60;99.90;;;;;;5070746;28;20023;-84
2022/09/07 02:01:27;;;;;;;1.30;0.20;;;18.50;99.90;;;;;;5065188;28;20027;-84
2022/09/07 02:04:08;;;;;;;1.33;0.50;;;18.60;99.90;;;;;;5045641;28;20477;-84
2022/09/07 02:06:40;;;;;;;2.80;0.55;;;18.60;99.90;;;;;;5070379;28;20028;-84
2022/09/07 02:09:23;;;;;;;2.30;0.60;;;18.70;99.90;;;;;;5072526;28;20434;-84
2022/09/07 02:11:49;;;;;;;1.25;0.40;;;18.70;99.90;;;;;;5054004;28;20024;-83
2022/09/07 02:14:29;;;;;;;1.65;0.68;;;18.70;99.90;;;;;;5069584;28;20053;-84
2022/09/07 02:17:01;;;;;;;2.33;0.40;;;18.70;99.90;;;;;;5071845;28;20025;-84
2022/09/07 02:19:33;;;;;;;2.38;0.40;;;18.70;99.90;;;;;;5071013;28;20017;-84
2022/09/07 02:22:04;;;;;;;4.47;0.60;;;18.70;99.90;;;;;;5069630;28;20028;-85
2022/09/07 02:24:34;;;;;;;2.08;0.40;;;18.70;99.90;;;;;;5056261;28;20025;-84
2022/09/07 02:27:07;;;;;;;2.33;0.68;;;18.70;99.90;;;;;;5052314;28;20052;-84
2022/09/07 02:29:32;;;;;;;1.90;0.50;;;18.70;99.90;;;;;;5070159;28;20033;-84
2022/09/07 02:31:58;;;;;;;1.70;0.63;;;18.70;99.90;;;;;;5056516;28;20111;-85
2022/09/07 02:34:24;;;;;;;1.45;0.47;;;18.80;99.90;;;;;;5073884;28;20033;-84
2022/09/07 02:36:51;;;;;;;3.25;0.75;;;18.80;99.90;;;;;;5055742;28;20017;-84
2022/09/07 02:39:17;;;;;;;2.47;0.85;;;18.80;99.90;;;;;;5067117;28;20035;-84
2022/09/07 02:41:44;;;;;;;2.97;0.70;;;18.80;99.90;;;;;;5055572;28;20032;-85
2022/09/07 02:44:17;;;;;;;1.15;0.30;;;18.80;99.90;;;;;;5072892;28;20021;-84
2022/09/07 02:46:49;;;;;;;2.30;0.50;;;18.70;99.90;;;;;;5072926;28;20423;-84
2022/09/07 02:49:56;;;;;;;1.92;0.47;;;18.70;99.90;;;;;;5056293;28;20021;-83
2022/09/07 02:52:45;;;;;;;2.42;0.50;;;18.70;99.90;;;;;;5064287;28;20028;-83
2022/09/07 02:55:13;;;;;;;1.05;0.40;;;18.70;99.90;;;;;;5073123;28;20055;-84
2022/09/07 02:57:42;;;;;;;2.22;0.60;;;18.70;99.90;;;;;;5055926;28;20515;-85
2022/09/07 03:00:15;;;;;;;1.67;0.50;;;18.80;99.90;;;;;;5050812;28;20081;-84
2022/09/07 03:03:09;;;;;;;1.40;0.52;;;18.80;99.90;;;;;;5061764;28;20024;-84
2022/09/07 03:05:51;;;;;;;1.33;0.45;;;18.80;99.90;;;;;;5064066;23;20509;-86
2022/09/07 03:08:33;;;;;;;1.02;0.47;;;18.90;99.90;;;;;;5033622;28;20021;-86
2022/09/07 03:10:59;;;;;;;1.70;0.50;;;19.00;99.90;;;;;;5035123;28;20022;-86
2022/09/07 03:13:27;;;;;;;2.10;0.57;;;19.00;99.90;;;;;;5016510;28;20057;-86
2022/09/07 03:15:54;;;;;;;1.98;0.60;;;19.00;99.90;;;;;;5015414;28;20032;-86
2022/09/07 03:18:20;;;;;;;2.78;0.60;;;19.10;99.90;;;;;;5033357;28;20021;-86
2022/09/07 03:20:46;;;;;;;2.67;0.60;;;19.10;99.90;;;;;;5052383;23;20045;-84
2022/09/07 03:23:12;;;;;;;1.98;0.60;;;19.10;99.90;;;;;;5053300;28;20435;-84
2022/09/07 03:25:37;;;;;;;2.47;0.75;;;19.10;99.90;;;;;;5051763;28;20056;-83
2022/09/07 03:28:04;;;;;;;2.00;1.25;;;19.20;99.90;;;;;;5053835;28;20021;-83
2022/09/07 03:30:30;;;;;;;1.92;0.70;;;19.10;99.90;;;;;;5052123;28;20028;-83
2022/09/07 03:32:55;;;;;;;1.15;0.50;;;19.10;99.90;;;;;;5048092;28;20058;-83
2022/09/07 03:35:21;;;;;;;1.48;0.50;;;19.10;99.90;;;;;;5053213;28;20024;-83
2022/09/07 03:37:47;;;;;;;2.08;0.50;;;19.10;99.90;;;;;;5047507;28;20482;-83
2022/09/07 03:40:15;;;;;;;2.03;0.60;;;19.10;99.90;;;;;;5053537;28;20021;-83
2022/09/07 03:42:41;;;;;;;1.95;0.43;;;19.10;99.90;;;;;;5055391;28;20025;-83
2022/09/07 03:45:08;;;;;;;2.60;0.90;;;19.00;99.90;;;;;;5049011;28;20029;-83
2022/09/07 03:47:37;;;;;;;1.13;0.57;;;19.00;99.90;;;;;;5053194;28;20397;-83
2022/09/07 03:50:04;;;;;;;1.65;0.60;;;19.00;99.90;;;;;;5048779;28;20013;-83
2022/09/07 03:52:29;;;;;;;1.30;0.50;;;18.90;99.90;;;;;;5054507;28;20111;-83
2022/09/07 03:54:55;;;;;;;1.30;0.40;;;18.80;99.90;;;;;;5049432;28;20057;-83
2022/09/07 03:57:21;;;;;;;1.30;0.55;;;18.80;99.90;;;;;;5048275;28;20049;-83
2022/09/07 03:59:48;;;;;;;1.90;0.70;;;18.80;99.90;;;;;;5052582;28;20075;-83
2022/09/07 04:02:14;;;;;;;1.80;0.57;;;18.70;99.90;;;;;;5053306;28;20025;-83
2022/09/07 04:04:41;;;;;;;0.98;0.50;;;18.70;99.90;;;;;;5050889;28;20447;-83
2022/09/07 04:07:07;;;;;;;1.42;0.60;;;18.70;99.90;;;;;;5052026;28;20049;-83
2022/09/07 04:09:33;;;;;;;1.83;0.70;;;18.60;99.90;;;;;;5046291;28;20486;-83
2022/09/07 04:11:58;;;;;;;1.45;0.45;;;18.60;99.90;;;;;;5053255;28;20124;-83
2022/09/07 04:14:24;;;;;;;3.78;0.80;;;18.60;99.90;;;;;;5054026;28;20048;-82
2022/09/07 04:16:49;;;;;;;1.95;0.80;;;18.60;99.90;;;;;;5053979;28;20025;-83
2022/09/07 04:19:16;;;;;;;1.75;0.65;;;18.60;99.90;;;;;;5051449;28;20621;-83
2022/09/07 04:21:45;;;;;;;2.13;0.77;;;18.60;99.90;;;;;;5073789;28;20032;-83
2022/09/07 04:24:12;;;;;;;3.55;0.50;;;18.60;99.90;;;;;;5069033;28;20100;-83
2022/09/07 04:26:38;;;;;;;3.83;0.88;;;18.60;99.90;;;;;;5070263;28;20048;-82
2022/09/07 04:29:05;;;;;;;2.33;0.73;;;18.60;99.90;;;;;;5063415;28;20048;-82
2022/09/07 04:31:33;;;;;;;2.30;0.50;;;18.60;99.90;;;;;;5066705;28;20060;-83
2022/09/07 04:33:59;;;;;;;2.67;0.40;;;18.50;99.90;;;;;;5071520;28;20024;-83
2022/09/07 04:36:25;;;;;;;1.13;0.68;;;18.50;99.90;;;;;;5067388;28;20028;-83
2022/09/07 04:38:56;;;;;;;1.58;0.38;;;18.50;99.90;;;;;;5070739;28;20032;-83
2022/09/07 04:41:22;;;;;;;0.77;0.30;;;18.60;99.90;;;;;;5072340;28;20151;-83
2022/09/07 04:43:53;;;;;;;1.42;0.60;;;18.50;99.90;;;;;;5071909;28;20591;-83
2022/09/07 04:46:32;;;;;;;1.73;0.50;;;18.50;99.90;;;;;;5066711;28;20105;-83
2022/09/07 04:49:00;;;;;;;1.80;0.47;;;18.50;99.90;;;;;;5068208;28;20366;-83
2022/09/07 04:51:29;;;;;;;1.85;0.60;;;18.50;99.90;;;;;;5072364;28;20507;-83
2022/09/07 04:53:56;;;;;;;1.88;0.63;;;18.40;99.90;;;;;;5064416;28;20020;-83
2022/09/07 04:56:23;;;;;;;2.70;0.73;;;18.40;99.90;;;;;;5072452;28;20047;-83
2022/09/07 04:58:49;;;;;;;2.97;0.75;;;18.30;99.90;;;;;;5077660;28;20036;-82
2022/09/07 05:01:17;;;;;;;2.45;0.98;;;18.30;99.90;;;;;;5070966;28;20025;-83
2022/09/07 05:03:43;;;;;;;4.22;0.80;;;18.30;99.90;;;;;;5067236;28;20031;-83
2022/09/07 05:06:10;;;;;;;1.42;0.73;;;18.20;99.90;;;;;;5072062;28;20027;-82
2022/09/07 05:08:37;;;;;;;2.58;0.60;;;18.20;99.90;;;;;;5071984;28;20040;-83
2022/09/07 05:11:03;;;;;;;1.85;0.57;;;18.20;99.90;;;;;;5074720;28;20032;-82
2022/09/07 05:13:30;;;;;;;2.75;1.05;;;18.10;99.90;;;;;;5082464;28;20029;-83
2022/09/07 05:15:56;;;;;;;3.05;0.70;;;18.10;99.90;;;;;;5085341;28;20017;-83
2022/09/07 05:18:22;;;;;;;2.58;0.98;;;18.00;99.90;;;;;;5071557;28;20028;-82
2022/09/07 05:20:48;;;;;;;5.18;1.00;;;18.00;99.90;;;;;;5071877;28;21518;-83
2022/09/07 05:23:13;;;;;;;1.95;0.70;;;18.00;99.90;;;;;;5071700;28;20044;-82
2022/09/07 05:25:45;;;;;;;4.00;1.23;;;18.00;99.90;;;;;;5068877;28;20025;-83
2022/09/07 05:28:12;;;;;;;1.63;0.70;;;18.10;99.90;;;;;;5068762;28;20629;-84
2022/09/07 05:30:42;;;;;;;1.92;0.82;;;18.10;99.90;;;;;;5065247;28;20574;-83
2022/09/07 05:33:07;;;;;;;2.30;0.88;;;18.10;99.90;;;;;;5063909;28;20047;-83
2022/09/07 05:35:33;;;;;;;1.45;0.73;;;18.20;99.90;;;;;;5059103;28;20513;-82
2022/09/07 05:37:59;;;;;;;1.60;0.75;;;18.20;99.90;;;;;;5063785;28;20025;-83
2022/09/07 05:40:24;;;;;;;2.10;0.90;;;18.20;99.90;;;;;;5069665;28;20023;-83
2022/09/07 05:42:50;;;;;;;2.42;0.70;;;18.30;99.90;;;;;;5070735;28;20016;-83
2022/09/07 05:45:16;;;;;;;4.43;0.90;;;18.20;99.90;;;;;;5069425;28;20127;-82
2022/09/07 05:47:42;;;;;;;3.60;1.02;;;18.30;99.90;;;;;;5068874;28;20035;-82
2022/09/07 05:50:08;;;;;;;3.38;1.15;;;18.30;99.90;;;;;;5070469;28;20039;-84
2022/09/07 05:52:34;;;;;;;3.25;0.93;;;18.40;99.90;;;;;;5070656;28;20027;-83
2022/09/07 05:55:00;;;;;;;2.63;0.80;;;18.50;99.90;;;;;;5064046;28;20443;-83
2022/09/07 05:57:26;;;;;;;4.78;0.80;;;18.50;99.90;;;;;;5068278;28;20051;-82
2022/09/07 05:59:52;;;;;;;2.85;0.95;;;18.60;99.90;;;;;;5069193;28;20499;-83
2022/09/07 06:02:18;;;;;;;2.00;0.80;;;18.50;99.90;;;;;;5069439;28;20060;-82
2022/09/07 06:04:43;;;;;;;4.15;1.10;;;18.50;99.90;;;;;;5069242;28;20075;-82
2022/09/07 06:07:13;;;;;;;3.97;1.20;;;18.50;99.90;;;;;;5068101;28;20025;-83
2022/09/07 06:09:39;;;;;;;0.98;0.47;;;18.50;99.90;;;;;;5070432;28;20028;-83
2022/09/07 06:12:05;;;;;;;2.05;0.80;;;18.50;99.90;;;;;;5070547;28;20028;-83
2022/09/07 06:14:31;;;;;;;2.05;0.90;;;18.60;99.90;;;;;;5062422;28;20039;-82
2022/09/07 06:16:57;;;;;;;1.70;0.60;;;18.70;99.90;;;;;;5068229;28;20107;-83
2022/09/07 06:19:23;;;;;;;2.72;0.88;;;18.80;99.90;;;;;;5067262;28;20115;-83
2022/09/07 06:21:49;;;;;;;2.22;0.60;;;18.90;99.90;;;;;;5064633;28;20550;-83
2022/09/07 06:24:14;;;;;;;3.35;0.90;;;19.10;99.90;;;;;;5067307;28;20056;-83
2022/09/07 06:26:40;;;;;;;6.45;0.95;;;19.20;99.90;;;;;;5069994;28;20483;-82
2022/09/07 06:29:05;;;;;;;2.20;0.70;;;19.40;99.90;;;;;;5063676;28;20021;-82
2022/09/07 06:31:31;;;;;;;3.35;0.90;;;19.50;99.90;;;;;;5069575;28;20025;-83
2022/09/07 06:33:57;;;;;;;3.90;1.25;;;19.70;99.90;;;;;;5065196;28;20074;-83
2022/09/07 06:36:28;;;;;;;2.65;0.68;;;19.80;99.90;;;;;;5069710;28;20036;-83
2022/09/07 06:38:55;;;;;;;1.50;0.57;;;19.90;99.90;;;;;;5070131;28;20027;-83
2022/09/07 06:41:27;;;;;;;1.25;0.47;;;20.10;99.90;;;;;;5061787;28;20410;-83
2022/09/07 06:43:54;;;;;;;2.25;0.90;;;20.30;99.90;;;;;;5068923;28;20441;-83
2022/09/07 06:46:20;;;;;;;2.63;0.60;;;20.40;99.90;;;;;;5074313;28;20571;-83
2022/09/07 06:48:46;;;;;;;1.88;0.60;;;20.50;99.90;;;;;;5066935;28;20169;-83
2022/09/07 06:51:18;;;;;;;3.22;0.90;;;20.60;99.90;;;;;;5069970;28;20512;-83
2022/09/07 06:53:44;;;;;;;2.33;0.70;;;20.70;99.90;;;;;;5068726;28;20024;-83
2022/09/07 06:56:12;;;;;;;1.15;0.45;;;20.70;99.90;;;;;;5068794;28;20024;-83
2022/09/07 06:58:39;;;;;;;2.25;0.63;;;20.80;99.90;;;;;;5066982;28;20020;-85
2022/09/07 07:01:08;;;;;;;2.15;0.63;;;20.80;99.90;;;;;;5070749;28;20017;-86
2022/09/07 07:03:35;;;;;;;2.85;0.70;;;20.80;99.90;;;;;;5067439;28;20079;-85
2022/09/07 07:06:01;;;;;;;3.33;0.70;;;20.70;99.90;;;;;;5072108;28;20016;-85
2022/09/07 07:08:26;;;;;;;1.20;0.50;;;20.70;99.90;;;;;;5072405;28;20021;-85
2022/09/07 07:10:52;;;;;;;1.38;0.57;;;20.70;99.90;;;;;;5072443;28;20457;-85
2022/09/07 07:13:18;;;;;;;2.47;0.73;;;20.70;99.90;;;;;;5071721;28;20029;-85
2022/09/07 07:15:45;;;;;;;2.13;0.50;;;20.80;99.90;;;;;;5065242;28;20032;-85
2022/09/07 07:18:12;;;;;;;2.75;0.55;;;20.90;99.90;;;;;;5072005;28;20025;-85
2022/09/07 07:20:39;;;;;;;2.92;0.38;;;21.20;99.90;;;;;;5072958;28;20033;-85
2022/09/07 07:23:05;;;;;;;3.15;0.75;;;21.30;99.90;;;;;;5060735;28;20103;-85
2022/09/07 07:25:34;;;;;;;1.38;0.65;;;21.50;99.90;;;;;;5067036;28;20043;-84
2022/09/07 07:27:59;;;;;;;4.78;0.75;;;21.70;99.90;;;;;;5073642;28;20020;-85
2022/09/07 07:30:25;;;;;;;2.92;0.57;;;21.90;99.90;;;;;;5069942;28;20032;-85
2022/09/07 07:32:58;;;;;;;1.50;0.40;;;21.90;99.90;;;;;;5071680;28;20074;-85
2022/09/07 07:35:25;;;;;;;1.27;0.47;;;21.90;99.90;;;;;;5069624;28;20025;-85
2022/09/07 07:37:52;;;;;;;4.50;1.17;;;21.80;99.90;;;;;;5069810;28;20075;-85
2022/09/07 07:40:18;;;;;;;2.60;0.50;;;21.70;99.90;;;;;;5071958;28;20032;-85
2022/09/07 07:42:44;;;;;;;1.20;0.32;;;21.80;99.90;;;;;;5069217;28;20034;-85
2022/09/07 07:45:10;;;;;;;1.00;0.60;;;21.90;99.90;;;;;;5067659;28;21012;-85
2022/09/07 07:47:36;;;;;;;1.75;0.70;;;22.00;99.90;;;;;;5071805;28;20020;-85
2022/09/07 07:50:03;;;;;;;8.10;0.82;;;22.00;99.90;;;;;;5069675;28;20028;-85
2022/09/07 07:52:37;;;;;;;1.67;0.60;;;22.10;99.90;;;;;;5072699;28;20024;-85
2022/09/07 07:55:04;;;;;;;3.83;0.90;;;22.20;99.90;;;;;;5072461;28;20059;-85
2022/09/07 07:57:30;;;;;;;1.35;0.47;;;22.30;99.90;;;;;;5070550;28;20449;-85
2022/09/07 07:59:56;;;;;;;1.60;0.60;;;22.30;99.90;;;;;;5072445;28;20542;-85
2022/09/07 08:02:22;;;;;;;1.13;0.40;;;22.40;99.90;;;;;;5061912;28;20029;-85
2022/09/07 08:04:51;;;;;;;2.55;0.57;;;22.60;99.90;;;;;;5066103;28;20025;-85
2022/09/07 08:07:18;;;;;;;1.98;0.45;;;22.80;99.90;;;;;;5069351;28;20479;-85
2022/09/07 08:09:46;;;;;;;2.10;0.80;;;22.90;99.90;;;;;;5064445;28;20021;-85
2022/09/07 08:12:17;;;;;;;1.27;0.43;;;22.90;99.90;;;;;;5067611;28;20021;-84
2022/09/07 08:14:47;;;;;;;2.75;1.45;;;22.80;99.90;;;;;;5070481;28;20025;-85
2022/09/07 08:17:22;;;;;;;2.08;0.60;;;22.90;99.90;;;;;;5067179;28;20569;-85
2022/09/07 08:19:47;;;;;;;1.55;0.55;;;22.90;99.90;;;;;;5070617;28;20031;-86
2022/09/07 08:22:13;;;;;;;2.35;0.60;;;23.00;99.90;;;;;;5060645;28;20028;-85
2022/09/07 08:24:41;;;;;;;2.20;0.60;;;23.10;99.90;;;;;;5061027;28;20492;-85
2022/09/07 08:27:12;;;;;;;3.72;0.70;;;23.30;99.90;;;;;;5072421;28;20020;-85
2022/09/07 08:29:37;;;;;;;1.65;0.43;;;23.40;99.90;;;;;;5066099;28;20035;-85
2022/09/07 08:32:05;;;;;;;3.78;0.90;;;23.50;99.90;;;;;;5071032;28;20021;-86
2022/09/07 08:34:33;;;;;;;1.75;0.70;;;23.60;99.90;;;;;;5057642;28;20021;-85
2022/09/07 08:36:59;;;;;;;1.63;0.45;;;23.80;99.90;;;;;;5070866;28;20481;-86
2022/09/07 08:39:24;;;;;;;2.17;0.60;;;23.80;99.90;;;;;;5069845;28;20103;-84
2022/09/07 08:42:07;;;;;;;2.63;0.60;;;24.00;99.90;;;;;;5071164;28;20040;-86
2022/09/07 08:44:40;;;;;;;1.65;0.45;;;23.90;99.90;;;;;;5060614;28;20048;-86
2022/09/07 08:47:18;;;;;;;2.08;0.70;;;23.90;99.90;;;;;;5068765;28;20021;-86
2022/09/07 08:49:59;;;;;;;3.25;0.70;;;24.00;99.90;;;;;;5066523;28;20041;-85
2022/09/07 08:52:32;;;;;;;4.10;0.75;;;24.10;99.90;;;;;;5071242;28;20011;-85
2022/09/07 08:55:21;;;;;;;2.20;0.70;;;24.10;99.90;;;;;;5065043;28;20024;-84
2022/09/07 08:57:55;;;;;;;3.08;0.73;;;24.30;99.90;;;;;;5070296;28;20830;-86
2022/09/07 09:00:21;;;;;;;1.38;0.50;;;24.50;99.90;;;;;;5069746;28;20036;-85
2022/09/07 09:02:47;;;;;;;3.97;0.80;;;24.60;99.90;;;;;;5071658;28;20029;-85
2022/09/07 09:05:27;;;;;;;2.22;0.60;;;24.70;99.90;;;;;;5068177;28;20063;-85
2022/09/07 09:08:19;;;;;;;1.90;0.60;;;24.90;99.90;;;;;;5066517;28;20386;-85
2022/09/07 09:11:04;;;;;;;1.65;0.50;;;25.10;99.90;;;;;;5071578;28;20029;-85
2022/09/07 09:13:45;;;;;;;2.03;0.52;;;25.20;99.90;;;;;;5067618;28;20039;-84
2022/09/07 09:16:14;;;;;;;1.95;0.70;;;25.20;99.90;;;;;;5069280;28;20111;-85
2022/09/07 09:19:14;;;;;;;0.95;0.40;;;25.30;99.90;;;;;;5070684;28;20027;-84
2022/09/07 09:21:41;;;;;;;0.98;0.50;;;25.30;99.90;;;;;;5078860;22;20052;-86
2022/09/07 09:24:32;;;;;;;2.33;0.70;;;25.50;99.90;;;;;;5067446;28;20013;-87
2022/09/07 09:26:59;;;;;;;1.52;0.50;;;25.40;99.90;;;;;;5063451;28;20031;-87
2022/09/07 09:29:24;;;;;;;0.88;0.38;;;25.30;99.90;;;;;;5053256;28;20063;-87
2022/09/07 09:31:51;;;;;;;2.10;0.50;;;25.60;99.90;;;;;;5052135;28;20048;-87
2022/09/07 09:34:18;;;;;;;2.63;0.63;;;25.80;99.90;;;;;;5086764;28;20040;-87
2022/09/07 09:36:49;;;;;;;1.38;0.47;;;26.20;99.90;;;;;;5052391;28;20503;-88
2022/09/07 09:39:35;;;;;;;1.65;0.55;;;26.30;99.90;;;;;;5070761;28;20489;-87
2022/09/07 09:42:29;;;;;;;2.83;0.50;;;26.20;99.90;;;;;;5065264;28;20044;-88
2022/09/07 09:45:05;;;;;;;1.98;0.50;;;26.50;99.90;;;;;;5066104;28;20028;-87
2022/09/07 09:47:34;;;;;;;2.53;0.50;;;26.50;99.90;;;;;;5069694;28;20029;-87
2022/09/07 09:50:14;;;;;;;2.58;0.57;;;26.80;99.90;;;;;;5086417;28;20024;-87
2022/09/07 09:52:45;;;;;;;3.30;0.50;;;26.60;99.90;;;;;;5085971;28;20039;-88
2022/09/07 09:55:20;;;;;;;0.95;0.30;;;26.90;99.90;;;;;;5070373;28;20515;-87
2022/09/07 09:57:51;;;;;;;2.05;0.68;;;26.80;99.90;;;;;;5052256;28;20434;-87
2022/09/07 10:00:20;;;;;;;1.73;0.40;;;26.70;99.90;;;;;;5070810;28;20366;-87
2022/09/07 10:03:12;;;;;;;1.65;0.50;;;26.50;99.90;;;;;;5051528;28;20024;-87
2022/09/07 10:05:46;;;;;;;1.80;0.50;;;26.10;99.90;;;;;;5052358;28;20033;-89
2022/09/07 10:08:20;;;;;;;2.78;0.70;;;26.20;99.90;;;;;;5052535;28;20108;-89
2022/09/07 10:10:56;;;;;;;0.60;0.30;;;26.20;99.90;;;;;;5052914;28;20027;-89
2022/09/07 10:13:34;;;;;;;1.50;0.40;;;26.40;99.90;;;;;;5053853;28;20027;-89
2022/09/07 10:16:04;;;;;;;1.15;0.40;;;26.50;99.90;;;;;;5061910;28;20012;-89
2022/09/07 10:18:36;;;;;;;1.63;0.38;;;26.40;99.90;;;;;;5053200;28;20040;-88
2022/09/07 10:21:28;;;;;;;1.15;0.40;;;26.20;99.90;;;;;;5051768;28;20033;-89
2022/09/07 10:23:54;;;;;;;2.05;0.63;;;26.20;99.90;;;;;;5077049;28;20028;-89
2022/09/07 10:26:26;;;;;;;4.00;1.30;;;26.50;99.90;;;;;;5085898;28;20496;-89
2022/09/07 10:29:28;;;;;;;2.85;0.50;;;26.80;99.90;;;;;;5052416;28;20020;-88
2022/09/07 10:32:18;;;;;;;1.92;0.32;;;26.60;99.90;;;;;;5070380;28;20017;-89
2022/09/07 10:35:15;;;;;;;1.87;0.43;;;26.40;99.90;;;;;;5088437;28;20028;-87
2022/09/07 10:37:59;;;;;;;2.38;0.65;;;26.00;99.90;;;;;;5071318;28;20124;-89
2022/09/07 10:40:36;;;;;;;0.90;0.40;;;25.80;99.90;;;;;;5050125;28;20025;-88
2022/09/07 10:43:17;;;;;;;1.75;0.50;;;25.70;99.90;;;;;;5051829;28;20435;-88
2022/09/07 10:45:48;;;;;;;1.75;0.57;;;26.10;99.90;;;;;;5089476;28;20103;-89
2022/09/07 10:48:19;;;;;;;1.40;0.40;;;26.60;99.90;;;;;;5052423;28;20025;-89
2022/09/07 10:51:02;;;;;;;1.15;0.40;;;27.10;99.90;;;;;;5073078;28;20035;-88
2022/09/07 10:53:28;;;;;;;3.17;0.43;;;27.30;99.90;;;;;;5089398;28;20029;-88
2022/09/07 10:56:02;;;;;;;0.77;0.30;;;27.50;99.90;;;;;;5073899;28;20017;-89
2022/09/07 10:58:49;;;;;;;1.33;0.40;;;27.70;99.90;;;;;;5067547;28;20078;-89
2022/09/07 11:01:25;;;;;;;1.48;0.55;;;27.80;99.70;;;;;;5072016;28;20099;-88
2022/09/07 11:04:15;;;;;;;1.35;0.50;;;27.30;99.90;;;;;;5089169;28;20016;-89
2022/09/07 11:06:47;;;;;;;1.83;0.38;;;27.40;99.90;;;;;;5071124;28;20078;-88
2022/09/07 11:09:54;;;;;;;1.17;0.70;;;26.90;99.90;;;;;;5073548;28;20074;-88
2022/09/07 11:12:34;;;;;;;0.93;0.45;;;26.90;99.90;;;;;;5022796;28;20036;-88
2022/09/07 11:15:11;;;;;;;1.17;0.50;;;26.60;99.90;;;;;;5062290;28;20013;-89
2022/09/07 11:17:51;;;;;;;2.90;0.65;;;26.60;99.90;;;;;;5088728;28;20031;-89
2022/09/07 11:20:38;;;;;;;1.45;0.65;;;26.50;99.90;;;;;;5073354;28;20024;-88
2022/09/07 11:23:26;;;;;;;4.15;0.80;;;26.50;99.90;;;;;;5074511;28;20397;-88
2022/09/07 11:26:21;;;;;;;1.67;0.60;;;26.30;99.90;;;;;;5054905;28;20473;-89
2022/09/07 11:28:59;;;;;;;1.52;0.60;;;26.10;99.90;;;;;;5055154;28;20025;-88
2022/09/07 11:31:51;;;;;;;1.85;0.43;;;25.90;99.90;;;;;;5055053;28;20098;-89
2022/09/07 11:34:32;;;;;;;2.03;0.60;;;25.70;99.90;;;;;;5057564;28;20067;-88
2022/09/07 11:37:05;;;;;;;2.60;0.60;;;25.50;99.90;;;;;;5053162;28;20020;-88
2022/09/07 11:39:56;;;;;;;2.28;0.75;;;25.50;99.90;;;;;;5072156;28;20032;-88
2022/09/07 11:42:46;;;;;;;2.05;0.60;;;25.50;99.90;;;;;;5067938;28;20093;-88
2022/09/07 11:45:53;;;;;;;1.33;0.50;;;25.40;99.90;;;;;;5054911;28;20376;-89
2022/09/07 11:48:25;;;;;;;2.40;0.60;;;26.00;99.90;;;;;;5067299;28;20069;-88
2022/09/07 11:51:01;;;;;;;2.08;0.88;;;26.70;99.90;;;;;;5054745;28;20499;-88
2022/09/07 11:53:32;;;;;;;2.08;0.82;;;27.00;99.90;;;;;;5053612;28;20639;-89
2022/09/07 11:56:09;;;;;;;3.43;0.60;;;27.20;99.90;;;;;;5047709;28;20121;-88
2022/09/07 11:58:43;;;;;;;2.67;0.70;;;27.60;99.90;;;;;;5070381;28;20766;-88
2022/09/07 12:01:35;;;;;;;1.27;0.55;;;27.90;99.90;;;;;;5072617;28;20499;-88
2022/09/07 12:04:28;;;;;;;2.85;0.82;;;28.30;99.90;;;;;;5067035;28;20091;-88
2022/09/07 12:06:53;;;;;;;1.77;0.65;;;28.50;99.90;;;;;;5064035;28;20421;-88
2022/09/07 12:09:22;;;;;;;1.75;0.68;;;28.60;98.60;;;;;;5054245;28;20025;-88
2022/09/07 12:12:05;;;;;;;1.13;0.50;;;28.70;99.00;;;;;;5088697;28;20162;-87
2022/09/07 12:15:00;;;;;;;2.17;0.80;;;29.10;99.20;;;;;;5047749;28;20060;-89
2022/09/07 12:17:47;;;;;;;1.25;0.60;;;29.30;98.40;;;;;;5073172;28;20480;-88
2022/09/07 12:20:22;;;;;;;1.35;0.50;;;28.90;98.20;;;;;;5072903;28;20032;-88
2022/09/07 12:23:03;;;;;;;0.90;0.50;;;28.60;97.90;;;;;;5084663;28;20040;-88
2022/09/07 12:25:30;;;;;;;2.20;0.73;;;28.60;98.00;;;;;;5054372;28;20532;-87
2022/09/07 12:27:57;;;;;;;2.08;0.55;;;28.40;98.10;;;;;;5072652;28;20021;-88
2022/09/07 12:30:22;;;;;;;1.25;0.52;;;28.00;97.40;;;;;;5072447;28;20021;-87
2022/09/07 12:32:52;;;;;;;2.22;0.52;;;27.60;97.40;;;;;;5069950;28;20094;-88
2022/09/07 12:35:27;;;;;;;1.15;0.50;;;27.40;98.20;;;;;;5070462;28;20017;-88
2022/09/07 12:37:53;;;;;;;1.08;0.40;;;27.20;98.80;;;;;;5088171;28;20020;-88
2022/09/07 12:40:32;;;;;;;1.17;0.40;;;27.60;98.50;;;;;;5054066;28;20504;-88
2022/09/07 12:43:13;;;;;;;6.10;0.60;;;28.20;97.70;;;;;;5086283;28;20075;-88
2022/09/07 12:45:38;;;;;;;1.25;0.55;;;28.90;96.90;;;;;;5087506;28;20024;-88
2022/09/07 12:48:10;;;;;;;3.65;0.47;;;29.40;94.20;;;;;;5072484;28;20013;-88
2022/09/07 12:51:14;;;;;;;1.30;0.50;;;29.00;94.80;;;;;;5069426;28;20031;-88
2022/09/07 12:53:59;;;;;;;1.83;0.40;;;28.90;95.30;;;;;;5070387;28;20131;-88
2022/09/07 12:56:33;;;;;;;1.58;0.60;;;29.00;96.30;;;;;;5071204;28;20151;-89
2022/09/07 12:59:24;;;;;;;1.25;0.40;;;28.50;96.80;;;;;;5067102;28;20110;-87
2022/09/07 13:02:08;;;;;;;2.92;0.63;;;28.30;96.80;;;;;;5070811;28;20032;-89
2022/09/07 13:04:54;;;;;;;2.17;0.77;;;28.00;97.00;;;;;;5054499;28;20032;-88
2022/09/07 13:07:31;;;;;;;1.42;0.57;;;28.10;96.80;;;;;;5053964;28;20123;-89
2022/09/07 13:09:59;;;;;;;0.65;0.40;;;28.80;96.40;;;;;;5081506;28;20023;-88
2022/09/07 13:12:29;;;;;;;1.30;0.47;;;28.80;96.10;;;;;;5071794;28;20016;-88
2022/09/07 13:14:57;;;;;;;3.40;0.60;;;28.60;96.10;;;;;;5079471;28;20028;-88